createdAt,value
2024-02-03T00:03:28.635Z,99225.28
2024-02-03T00:08:36.887Z,99228.50
2024-02-03T00:13:42.732Z,99223.72
2024-02-03T00:18:48.399Z,99225.84
2024-02-03T00:23:58.732Z,99213.41
2024-02-03T00:29:06.264Z,99230.63
2024-02-03T00:34:13.402Z,99228.50
2024-02-03T00:39:21.535Z,99221.63
2024-02-03T00:44:26.710Z,99222.41
2024-02-03T00:49:32.626Z,99214.69
2024-02-03T00:54:40.816Z,99211.25
2024-02-03T00:59:46.762Z,99230.59
2024-02-03T01:04:52.175Z,99227.41
2024-02-03T01:10:02.142Z,99228.16
2024-02-03T01:15:08.391Z,99227.09
2024-02-03T01:20:15.540Z,99207.47
2024-02-03T01:25:23.666Z,99214.38
2024-02-03T01:30:29.137Z,99213.31
2024-02-03T01:35:35.501Z,99216.16
2024-02-03T01:40:44.271Z,99208.22
2024-02-03T01:45:49.668Z,99220.88
2024-02-03T01:50:57.914Z,99223.00
2024-02-03T01:56:07.464Z,99220.59
2024-02-03T02:01:14.665Z,99226.13
2024-02-03T02:06:20.077Z,99217.91
2024-02-03T02:11:30.327Z,99200.13
2024-02-03T02:16:35.904Z,99204.91
2024-02-03T02:21:49.923Z,99189.19
2024-02-03T02:26:57.286Z,99200.34
2024-02-03T02:32:02.681Z,99196.13
2024-02-03T02:37:10.696Z,99191.31
2024-02-03T02:42:16.109Z,99192.38
2024-02-03T02:47:21.516Z,99176.47
2024-02-03T02:52:30.716Z,99178.00
2024-02-03T02:57:36.328Z,99177.25
2024-02-03T03:02:41.877Z,99169.50
2024-02-03T03:07:49.929Z,99172.94
2024-02-03T03:12:55.730Z,99175.06
2024-02-03T03:18:03.750Z,99196.28
2024-02-03T03:23:11.850Z,99186.50
2024-02-03T03:28:17.349Z,99196.28
2024-02-03T03:33:22.900Z,99207.09
2024-02-03T03:38:31.318Z,99195.94
2024-02-03T03:43:40.994Z,99206.81
2024-02-03T03:48:46.340Z,99192.31
2024-02-03T03:53:54.399Z,99211.06
2024-02-03T03:59:00.738Z,99214.56
2024-02-03T04:04:06.092Z,99201.78
2024-02-03T04:09:14.155Z,99214.53
2024-02-03T04:14:19.488Z,99201.25
2024-02-03T04:19:27.872Z,99196.19
2024-02-03T04:24:35.955Z,99201.47
2024-02-03T04:29:41.123Z,99179.53
2024-02-03T04:34:46.510Z,99174.75
2024-02-03T04:39:54.610Z,99182.34
2024-02-03T04:44:59.946Z,99182.09
2024-02-03T04:50:05.789Z,99180.50
2024-02-03T04:55:13.774Z,99178.91
2024-02-03T05:00:21.635Z,99176.47
2024-02-03T05:05:28.793Z,99171.97
2024-02-03T05:10:36.509Z,99171.94
2024-02-03T05:15:41.663Z,99148.88
2024-02-03T05:20:47.080Z,99157.88
2024-02-03T05:25:54.793Z,99148.63
2024-02-03T05:31:00.078Z,99139.31
2024-02-03T05:36:05.188Z,99147.25
2024-02-03T05:41:13.917Z,99161.88
2024-02-03T05:46:18.984Z,99163.00
2024-02-03T05:51:24.142Z,99164.31
2024-02-03T05:56:32.948Z,99158.25
2024-02-03T06:01:38.161Z,99183.72
2024-02-03T06:06:43.698Z,99168.38
2024-02-03T06:11:52.169Z,99156.38
2024-02-03T06:16:57.500Z,99154.06
2024-02-03T06:22:03.207Z,99152.75
2024-02-03T06:27:11.468Z,99143.50
2024-02-03T06:32:16.859Z,99154.38
2024-02-03T06:37:22.255Z,99144.81
2024-02-03T06:42:30.211Z,99153.59
2024-02-03T06:47:35.618Z,99154.66
2024-02-03T06:52:40.983Z,99173.75
2024-02-03T06:57:48.957Z,99173.00
2024-02-03T07:02:54.476Z,99168.97
2024-02-03T07:08:03.959Z,99176.38
2024-02-03T07:13:15.049Z,99180.94
2024-02-03T07:18:22.300Z,99180.59
2024-02-03T07:23:27.773Z,99184.06
2024-02-03T07:28:35.612Z,99191.72
2024-02-03T07:33:40.922Z,99197.59
2024-02-03T07:38:48.166Z,99185.41
2024-02-03T07:43:56.570Z,99191.72
2024-02-03T07:49:02.236Z,99180.28
2024-02-03T07:54:07.996Z,99186.09
2024-02-03T07:59:16.181Z,99194.88
2024-02-03T08:04:21.381Z,99204.91
2024-02-03T08:09:28.737Z,99196.19
2024-02-03T08:14:39.874Z,99198.00
2024-02-03T08:19:45.598Z,99199.53
2024-02-03T08:24:51.092Z,99184.75
2024-02-03T08:30:00.594Z,99193.50
2024-02-03T08:40:22.945Z,99195.34
2024-02-03T08:45:30.970Z,99203.56
2024-02-03T08:50:36.298Z,99204.28
2024-02-03T08:55:41.653Z,99202.97
2024-02-03T09:00:51.688Z,99200.84
2024-02-03T09:06:02.145Z,99213.59
2024-02-03T09:11:10.963Z,99211.97
2024-02-03T09:16:18.836Z,99221.53
2024-02-03T09:21:26.477Z,99216.03
2024-02-03T09:26:31.847Z,99218.41
2024-02-03T09:31:39.935Z,99217.78
2024-02-03T09:41:56.570Z,99228.03
2024-02-03T09:47:07.776Z,99242.38
2024-02-03T09:52:16.512Z,99233.28
2024-02-03T09:57:22.447Z,99236.66
2024-02-03T10:02:33.920Z,99239.25
2024-02-03T10:07:39.765Z,99231.59
2024-02-03T10:12:45.133Z,99228.75
2024-02-03T10:18:00.196Z,99231.53
2024-02-03T10:23:05.949Z,99237.47
2024-02-03T10:28:12.473Z,99233.28
2024-02-03T10:33:22.629Z,99234.81
2024-02-03T10:38:28.050Z,99234.81
2024-02-03T10:43:41.502Z,99238.41
2024-02-03T10:48:51.519Z,99236.50
2024-02-03T10:54:02.247Z,99244.00
2024-02-03T10:59:08.108Z,99258.88
2024-02-03T11:04:18.471Z,99241.63
2024-02-03T11:09:29.953Z,99247.41
2024-02-03T11:14:37.355Z,99243.72
2024-02-03T11:19:48.350Z,99245.34
2024-02-03T11:24:53.906Z,99243.78
2024-02-03T11:30:08.102Z,99238.47
2024-02-03T11:35:19.657Z,99233.34
2024-02-03T11:40:25.289Z,99233.03
2024-02-03T11:45:35.395Z,99231.97
2024-02-03T11:50:46.504Z,99222.66
2024-02-03T11:55:53.234Z,99217.84
2024-02-03T12:01:08.417Z,99206.72
2024-02-03T12:06:17.758Z,99190.34
2024-02-03T12:11:23.421Z,99190.47
2024-02-03T12:16:28.608Z,99195.06
2024-02-03T12:21:41.688Z,99198.00
2024-02-03T12:26:47.219Z,99185.63
2024-02-03T12:31:52.613Z,99183.69
2024-02-03T12:37:00.644Z,99172.94
2024-02-03T12:42:05.950Z,99170.03
2024-02-03T12:47:11.711Z,99160.84
2024-02-03T12:52:21.557Z,99166.66
2024-02-03T12:57:27.061Z,99171.13
2024-02-03T13:02:32.189Z,99169.44
2024-02-03T13:07:41.293Z,99169.66
2024-02-03T13:12:46.450Z,99163.22
2024-02-03T13:17:51.688Z,99152.78
2024-02-03T13:23:01.624Z,99151.78
2024-02-03T13:28:07.840Z,99154.03
2024-02-03T13:33:14.658Z,99143.88
2024-02-03T13:38:22.636Z,99140.50
2024-02-03T13:43:27.935Z,99142.56
2024-02-03T13:48:33.354Z,99145.66
2024-02-03T13:53:42.562Z,99134.09
2024-02-03T13:58:48.646Z,99123.00
2024-02-03T14:03:53.778Z,99132.81
2024-02-03T14:09:02.070Z,99129.66
2024-02-03T14:14:07.180Z,99143.09
2024-02-03T14:19:12.561Z,99148.75
2024-02-03T14:24:20.520Z,99144.50
2024-02-03T14:29:25.862Z,99133.94
2024-02-03T14:34:34.255Z,99131.22
2024-02-03T14:39:42.515Z,99138.59
2024-02-03T14:44:48.083Z,99127.25
2024-02-03T14:49:53.576Z,99144.25
2024-02-03T14:55:01.472Z,99146.47
2024-02-03T15:00:07.325Z,99152.94
2024-02-03T15:05:13.007Z,99162.88
2024-02-03T15:10:20.985Z,99159.56
2024-02-03T15:15:26.682Z,99156.66
2024-02-03T15:20:32.020Z,99162.56
2024-02-03T15:25:39.773Z,99154.13
2024-02-03T15:30:45.061Z,99161.56
2024-02-03T15:35:50.291Z,99177.69
2024-02-03T15:40:59.574Z,99187.28
2024-02-03T15:46:10.325Z,99168.97
2024-02-03T15:51:18.205Z,99174.56
2024-02-03T15:56:28.071Z,99181.22
2024-02-03T16:01:41.519Z,99183.72
2024-02-03T16:06:50.875Z,99195.22
2024-02-03T16:11:59.579Z,99202.13
2024-02-03T16:17:07.924Z,99193.53
2024-02-03T16:22:13.476Z,99193.34
2024-02-03T16:27:24.329Z,99196.50
2024-02-03T16:32:32.180Z,99193.66
2024-02-03T16:37:38.220Z,99202.63
2024-02-03T16:42:48.465Z,99196.50
2024-02-03T16:47:53.976Z,99193.00
2024-02-03T16:53:04.069Z,99202.81
2024-02-03T16:58:12.689Z,99199.63
2024-02-03T17:03:18.361Z,99204.34
2024-02-03T17:08:23.789Z,99208.38
2024-02-03T17:13:31.781Z,99191.66
2024-02-03T17:18:39.957Z,99190.06
2024-02-03T17:23:45.390Z,99179.56
2024-02-03T17:28:55.846Z,99176.31
2024-02-03T17:34:04.787Z,99186.13
2024-02-03T17:39:12.713Z,99164.88
2024-02-03T17:44:21.036Z,99171.75
2024-02-03T17:49:26.695Z,99173.31
2024-02-03T17:54:32.319Z,99177.56
2024-02-03T17:59:43.058Z,99178.16
2024-02-03T18:04:48.213Z,99186.91
2024-02-03T18:09:53.480Z,99191.97
2024-02-03T18:15:04.022Z,99183.44
2024-02-03T18:20:16.779Z,99188.50
2024-02-03T18:25:26.741Z,99174.63
2024-02-03T18:30:35.540Z,99176.22
2024-02-03T18:35:41.911Z,99194.22
2024-02-03T18:40:47.127Z,99174.06
2024-02-03T18:45:56.021Z,99173.81
2024-02-03T18:51:01.442Z,99169.25
2024-02-03T18:56:06.813Z,99166.63
2024-02-03T19:01:15.028Z,99159.72
2024-02-03T19:06:20.566Z,99167.28
2024-02-03T19:11:32.225Z,99179.53
2024-02-03T19:16:40.357Z,99178.41
2024-02-03T19:21:45.663Z,99176.06
2024-02-03T19:26:50.988Z,99169.47
2024-02-03T19:32:01.135Z,99160.97
2024-02-03T19:37:06.446Z,99161.94
2024-02-03T19:42:11.781Z,99163.03
2024-02-03T19:47:20.163Z,99159.88
2024-02-03T19:52:27.417Z,99161.78
2024-02-03T19:57:34.209Z,99165.47
2024-02-03T20:02:42.477Z,99166.25
2024-02-03T20:07:47.795Z,99156.94
2024-02-03T20:12:53.164Z,99159.88
2024-02-03T20:18:01.102Z,99149.53
2024-02-03T20:23:06.941Z,99144.50
2024-02-03T20:28:20.318Z,99143.91
2024-02-03T20:33:28.616Z,99142.91
2024-02-03T20:38:36.647Z,99137.81
2024-02-03T20:43:45.626Z,99144.72
2024-02-03T20:48:53.721Z,99155.53
2024-02-03T20:53:59.000Z,99152.59
2024-02-03T20:59:04.374Z,99151.78
2024-02-03T21:04:14.694Z,99151.34
2024-02-03T21:09:21.072Z,99148.34
2024-02-03T21:14:26.529Z,99139.63
2024-02-03T21:19:34.590Z,99137.50
2024-02-03T21:24:42.156Z,99132.47
2024-02-03T21:29:48.665Z,99134.94
2024-02-03T21:34:57.262Z,99120.13
2024-02-03T21:40:11.029Z,99120.63
2024-02-03T21:45:16.564Z,99114.25
2024-02-03T21:50:25.461Z,99117.47
2024-02-03T21:55:31.279Z,99120.44
2024-02-03T22:00:42.207Z,99121.75
2024-02-03T22:05:51.154Z,99110.44
2024-02-03T22:10:56.874Z,99107.22
2024-02-03T22:16:02.210Z,99084.72
2024-02-03T22:21:17.650Z,99079.44
2024-02-03T22:26:25.861Z,99065.38
2024-02-03T22:31:33.459Z,99087.16
2024-02-03T22:36:43.578Z,99094.03
2024-02-03T22:41:56.365Z,99110.19
2024-02-03T22:47:03.056Z,99103.78
2024-02-03T22:52:16.914Z,99096.88
2024-02-03T22:57:22.205Z,99086.56
2024-02-03T23:02:27.320Z,99081.84
2024-02-03T23:07:40.039Z,99092.13
2024-02-03T23:12:45.532Z,99085.47
2024-02-03T23:17:52.422Z,99078.59
2024-02-03T23:23:06.512Z,99075.59
2024-02-03T23:28:14.277Z,99071.34
2024-02-03T23:33:19.999Z,99064.66
2024-02-03T23:38:27.777Z,99061.56
2024-02-03T23:43:35.987Z,99046.97
2024-02-03T23:48:46.009Z,99048.31
2024-02-03T23:53:59.626Z,99054.13
2024-02-03T23:59:05.248Z,99051.16
